Portada
METAR-TAF:

METAR-TAF

Aeroports :

Kununurra, Austràlia

latitud: 15-46S, longitud: 128-42E, altitud: 44 m

Observació

L'informe es va fer fa 28 minuts, a les 14:00 UTC
Vent calma
Temperatura 15°C
Humitat 77%
Pressió 1013 hPa
Visibilitat: 0400 m

METAR: YPKU 141400Z AUTO 00000KT 0400 // ////// 15/11 Q1013

Hora: 22:28 (14:28 UTC)

Pronòstic

L'informe es va fer fa 10 minuts, a les 14:18 UTC
Pronòstic vàlid del 14 a les 14 UTC al 15 a les 02 UTC
Vent 3 kt amb direcció variable
Visibilitat 10 km o més
sense núvols per sota de 1500 mi sense presència de cumulonimbus.
A partir de les 15 a les 0000 UTC
Vent 14 kt del Est/Sud-Est
Visibilitat 10 km o més
sense núvols per sota de 1500 mi sense presència de cumulonimbus.
Probabilitat 40%
l' 14 a les 14 UTC al 14 a les 20 UTC
Visibilitat: 0500 m
fum

TAF: YPKU 141418Z 1414/1502 VRB03KT CAVOK FM150000 12014KT CAVOK PROB40 1414/1420 0500 FU NSC

Observacions i pronòstics meteorològics de més de 4000 aeroports (METAR i TAF).

Les estacions disponibles són els punts grocs i vermells al mapa.

Posi el ratolí al punt desitjat per veure el nom de l'estació.

Feu clic per veure les observacions i els pronòstics meteorològics.

Per canviar el mapa: feu clic els botons verds amb una creu de color negre per apropar; al botó verd amb un guió per allunyar la imatge; o en les fletxes verdes per a mapes adjacents.


METAR-TAF: